sensor_id;sensor_type;location;lat;lon;timestamp;P1;durP1;ratioP1;P2;durP2;ratioP2
28166;SDS011;15455;53.376;-6.262;2023-11-19T00:01:52;26.17;;;4.68;;
28166;SDS011;15455;53.376;-6.262;2023-11-19T00:04:38;15.45;;;4.40;;
28166;SDS011;15455;53.376;-6.262;2023-11-19T00:07:25;28.05;;;4.80;;
28166;SDS011;15455;53.376;-6.262;2023-11-19T00:10:19;26.98;;;5.75;;
28166;SDS011;15455;53.376;-6.262;2023-11-19T00:13:06;19.00;;;4.38;;
28166;SDS011;15455;53.376;-6.262;2023-11-19T00:15:52;20.90;;;4.95;;
28166;SDS011;15455;53.376;-6.262;2023-11-19T00:18:38;21.60;;;4.80;;
28166;SDS011;15455;53.376;-6.262;2023-11-19T00:21:23;19.38;;;3.58;;
28166;SDS011;15455;53.376;-6.262;2023-11-19T00:24:08;28.75;;;5.18;;
28166;SDS011;15455;53.376;-6.262;2023-11-19T00:26:54;29.85;;;5.18;;
28166;SDS011;15455;53.376;-6.262;2023-11-19T00:29:39;20.48;;;5.82;;
28166;SDS011;15455;53.376;-6.262;2023-11-19T00:32:25;22.95;;;4.57;;
28166;SDS011;15455;53.376;-6.262;2023-11-19T00:35:11;18.42;;;4.32;;
28166;SDS011;15455;53.376;-6.262;2023-11-19T00:38:00;19.77;;;4.38;;
28166;SDS011;15455;53.376;-6.262;2023-11-19T00:40:46;18.45;;;4.82;;
28166;SDS011;15455;53.376;-6.262;2023-11-19T00:43:31;21.13;;;4.65;;
28166;SDS011;15455;53.376;-6.262;2023-11-19T00:46:16;21.27;;;4.40;;
28166;SDS011;15455;53.376;-6.262;2023-11-19T00:49:03;21.60;;;5.47;;
28166;SDS011;15455;53.376;-6.262;2023-11-19T00:51:49;25.80;;;4.20;;
28166;SDS011;15455;53.376;-6.262;2023-11-19T00:54:34;17.25;;;4.63;;
28166;SDS011;15455;53.376;-6.262;2023-11-19T00:57:19;22.52;;;5.88;;
28166;SDS011;15455;53.376;-6.262;2023-11-19T01:00:05;29.40;;;6.25;;
28166;SDS011;15455;53.376;-6.262;2023-11-19T01:03:05;31.55;;;4.28;;
28166;SDS011;15455;53.376;-6.262;2023-11-19T01:05:52;17.08;;;5.03;;
28166;SDS011;15455;53.376;-6.262;2023-11-19T01:08:38;11.18;;;4.05;;
28166;SDS011;15455;53.376;-6.262;2023-11-19T01:11:24;27.45;;;5.57;;
28166;SDS011;15455;53.376;-6.262;2023-11-19T01:14:10;16.60;;;3.58;;
28166;SDS011;15455;53.376;-6.262;2023-11-19T01:16:56;16.10;;;3.25;;
28166;SDS011;15455;53.376;-6.262;2023-11-19T01:19:41;31.42;;;4.88;;
28166;SDS011;15455;53.376;-6.262;2023-11-19T01:22:27;19.85;;;4.30;;
28166;SDS011;15455;53.376;-6.262;2023-11-19T01:25:13;16.92;;;3.38;;
28166;SDS011;15455;53.376;-6.262;2023-11-19T01:27:58;15.43;;;3.60;;
28166;SDS011;15455;53.376;-6.262;2023-11-19T01:30:44;13.40;;;3.17;;
28166;SDS011;15455;53.376;-6.262;2023-11-19T01:33:29;13.60;;;3.70;;
28166;SDS011;15455;53.376;-6.262;2023-11-19T01:36:15;12.75;;;4.28;;
28166;SDS011;15455;53.376;-6.262;2023-11-19T01:39:01;20.55;;;4.20;;
28166;SDS011;15455;53.376;-6.262;2023-11-19T01:41:47;12.82;;;3.92;;
28166;SDS011;15455;53.376;-6.262;2023-11-19T01:44:32;14.57;;;4.15;;
28166;SDS011;15455;53.376;-6.262;2023-11-19T01:47:18;12.68;;;3.40;;
28166;SDS011;15455;53.376;-6.262;2023-11-19T01:50:06;20.20;;;4.13;;
28166;SDS011;15455;53.376;-6.262;2023-11-19T01:52:53;18.45;;;3.13;;
28166;SDS011;15455;53.376;-6.262;2023-11-19T01:55:39;13.68;;;2.92;;
28166;SDS011;15455;53.376;-6.262;2023-11-19T01:58:25;16.15;;;3.50;;
28166;SDS011;15455;53.376;-6.262;2023-11-19T02:01:12;8.85;;;3.15;;
28166;SDS011;15455;53.376;-6.262;2023-11-19T02:03:58;22.90;;;4.13;;
28166;SDS011;15455;53.376;-6.262;2023-11-19T02:06:45;13.73;;;2.97;;
28166;SDS011;15455;53.376;-6.262;2023-11-19T02:09:33;14.00;;;3.40;;
28166;SDS011;15455;53.376;-6.262;2023-11-19T02:12:19;15.90;;;3.03;;
28166;SDS011;15455;53.376;-6.262;2023-11-19T02:15:05;16.90;;;2.88;;
28166;SDS011;15455;53.376;-6.262;2023-11-19T02:17:51;18.35;;;3.30;;
28166;SDS011;15455;53.376;-6.262;2023-11-19T02:20:36;11.38;;;2.97;;
28166;SDS011;15455;53.376;-6.262;2023-11-19T02:23:22;20.88;;;3.25;;
28166;SDS011;15455;53.376;-6.262;2023-11-19T02:26:55;14.80;;;3.03;;
28166;SDS011;15455;53.376;-6.262;2023-11-19T02:29:43;22.92;;;3.72;;
28166;SDS011;15455;53.376;-6.262;2023-11-19T02:32:29;20.95;;;3.25;;
28166;SDS011;15455;53.376;-6.262;2023-11-19T02:35:16;17.48;;;2.58;;
28166;SDS011;15455;53.376;-6.262;2023-11-19T02:38:01;18.35;;;3.13;;
28166;SDS011;15455;53.376;-6.262;2023-11-19T02:40:49;15.20;;;3.33;;
28166;SDS011;15455;53.376;-6.262;2023-11-19T02:43:35;18.45;;;3.50;;
28166;SDS011;15455;53.376;-6.262;2023-11-19T02:46:22;15.20;;;2.72;;
28166;SDS011;15455;53.376;-6.262;2023-11-19T02:49:08;12.93;;;2.47;;
28166;SDS011;15455;53.376;-6.262;2023-11-19T02:51:56;19.13;;;2.50;;
28166;SDS011;15455;53.376;-6.262;2023-11-19T02:54:42;17.38;;;3.78;;
28166;SDS011;15455;53.376;-6.262;2023-11-19T02:57:30;17.33;;;3.30;;
28166;SDS011;15455;53.376;-6.262;2023-11-19T03:00:17;16.83;;;3.53;;
28166;SDS011;15455;53.376;-6.262;2023-11-19T03:03:08;15.40;;;3.35;;
28166;SDS011;15455;53.376;-6.262;2023-11-19T03:06:06;16.73;;;3.33;;
28166;SDS011;15455;53.376;-6.262;2023-11-19T03:08:52;13.90;;;3.55;;
28166;SDS011;15455;53.376;-6.262;2023-11-19T03:11:38;12.90;;;2.60;;
28166;SDS011;15455;53.376;-6.262;2023-11-19T03:14:24;13.68;;;3.35;;
28166;SDS011;15455;53.376;-6.262;2023-11-19T03:17:09;11.32;;;2.80;;
28166;SDS011;15455;53.376;-6.262;2023-11-19T03:19:55;14.27;;;3.05;;
28166;SDS011;15455;53.376;-6.262;2023-11-19T03:22:41;18.90;;;3.38;;
28166;SDS011;15455;53.376;-6.262;2023-11-19T03:25:27;16.95;;;3.67;;
28166;SDS011;15455;53.376;-6.262;2023-11-19T03:28:18;15.35;;;2.72;;
28166;SDS011;15455;53.376;-6.262;2023-11-19T03:31:07;11.77;;;2.80;;
28166;SDS011;15455;53.376;-6.262;2023-11-19T03:33:55;17.67;;;2.63;;
28166;SDS011;15455;53.376;-6.262;2023-11-19T03:36:43;14.95;;;4.88;;
28166;SDS011;15455;53.376;-6.262;2023-11-19T03:39:29;22.25;;;4.10;;
28166;SDS011;15455;53.376;-6.262;2023-11-19T03:42:14;13.35;;;2.95;;
28166;SDS011;15455;53.376;-6.262;2023-11-19T03:45:00;15.25;;;2.45;;
28166;SDS011;15455;53.376;-6.262;2023-11-19T03:47:45;27.75;;;3.63;;
28166;SDS011;15455;53.376;-6.262;2023-11-19T03:50:31;12.02;;;2.95;;
28166;SDS011;15455;53.376;-6.262;2023-11-19T03:53:16;16.20;;;2.97;;
28166;SDS011;15455;53.376;-6.262;2023-11-19T03:56:04;6.78;;;2.45;;
28166;SDS011;15455;53.376;-6.262;2023-11-19T03:58:49;11.43;;;2.65;;
28166;SDS011;15455;53.376;-6.262;2023-11-19T04:01:35;14.80;;;2.47;;
28166;SDS011;15455;53.376;-6.262;2023-11-19T04:04:23;10.68;;;1.88;;
28166;SDS011;15455;53.376;-6.262;2023-11-19T04:07:09;13.60;;;2.55;;
28166;SDS011;15455;53.376;-6.262;2023-11-19T04:09:54;17.50;;;2.53;;
28166;SDS011;15455;53.376;-6.262;2023-11-19T04:12:40;14.50;;;3.05;;
28166;SDS011;15455;53.376;-6.262;2023-11-19T04:15:25;7.18;;;2.38;;
28166;SDS011;15455;53.376;-6.262;2023-11-19T04:18:11;10.10;;;3.10;;
28166;SDS011;15455;53.376;-6.262;2023-11-19T04:20:56;13.55;;;2.90;;
28166;SDS011;15455;53.376;-6.262;2023-11-19T04:23:41;12.02;;;2.83;;
28166;SDS011;15455;53.376;-6.262;2023-11-19T04:26:27;23.15;;;4.38;;
28166;SDS011;15455;53.376;-6.262;2023-11-19T04:29:15;13.60;;;3.15;;
28166;SDS011;15455;53.376;-6.262;2023-11-19T04:32:02;16.45;;;3.10;;
28166;SDS011;15455;53.376;-6.262;2023-11-19T04:34:48;7.90;;;2.55;;
28166;SDS011;15455;53.376;-6.262;2023-11-19T04:37:34;19.10;;;2.50;;
28166;SDS011;15455;53.376;-6.262;2023-11-19T04:40:20;25.98;;;3.47;;
28166;SDS011;15455;53.376;-6.262;2023-11-19T04:43:07;8.65;;;1.98;;
28166;SDS011;15455;53.376;-6.262;2023-11-19T04:45:53;7.30;;;1.88;;
28166;SDS011;15455;53.376;-6.262;2023-11-19T04:48:39;8.80;;;1.90;;
28166;SDS011;15455;53.376;-6.262;2023-11-19T04:51:26;7.00;;;2.03;;
28166;SDS011;15455;53.376;-6.262;2023-11-19T04:54:12;9.20;;;2.22;;
28166;SDS011;15455;53.376;-6.262;2023-11-19T04:56:58;17.38;;;3.17;;
28166;SDS011;15455;53.376;-6.262;2023-11-19T04:59:43;20.52;;;3.55;;
28166;SDS011;15455;53.376;-6.262;2023-11-19T05:02:29;12.40;;;4.15;;
28166;SDS011;15455;53.376;-6.262;2023-11-19T05:05:15;11.43;;;2.63;;
28166;SDS011;15455;53.376;-6.262;2023-11-19T05:08:01;7.65;;;2.53;;
28166;SDS011;15455;53.376;-6.262;2023-11-19T05:10:47;15.77;;;3.10;;
28166;SDS011;15455;53.376;-6.262;2023-11-19T05:13:32;6.72;;;2.83;;
28166;SDS011;15455;53.376;-6.262;2023-11-19T05:16:18;12.13;;;3.60;;
28166;SDS011;15455;53.376;-6.262;2023-11-19T05:19:04;12.20;;;3.67;;
28166;SDS011;15455;53.376;-6.262;2023-11-19T05:21:49;11.75;;;2.75;;
28166;SDS011;15455;53.376;-6.262;2023-11-19T05:24:37;12.20;;;2.88;;
28166;SDS011;15455;53.376;-6.262;2023-11-19T05:27:24;15.20;;;2.63;;
28166;SDS011;15455;53.376;-6.262;2023-11-19T05:30:11;7.72;;;2.58;;
28166;SDS011;15455;53.376;-6.262;2023-11-19T05:32:57;8.88;;;2.85;;
28166;SDS011;15455;53.376;-6.262;2023-11-19T05:35:42;9.32;;;2.58;;
28166;SDS011;15455;53.376;-6.262;2023-11-19T05:38:28;9.18;;;2.60;;
28166;SDS011;15455;53.376;-6.262;2023-11-19T05:41:14;7.68;;;1.98;;
28166;SDS011;15455;53.376;-6.262;2023-11-19T05:44:00;8.55;;;3.20;;
28166;SDS011;15455;53.376;-6.262;2023-11-19T05:46:45;5.47;;;1.83;;
28166;SDS011;15455;53.376;-6.262;2023-11-19T05:49:31;11.95;;;2.72;;
28166;SDS011;15455;53.376;-6.262;2023-11-19T05:52:16;13.98;;;3.42;;
28166;SDS011;15455;53.376;-6.262;2023-11-19T05:55:03;7.32;;;2.42;;
28166;SDS011;15455;53.376;-6.262;2023-11-19T05:57:55;8.43;;;2.45;;
28166;SDS011;15455;53.376;-6.262;2023-11-19T06:00:41;8.70;;;2.47;;
28166;SDS011;15455;53.376;-6.262;2023-11-19T06:03:26;16.33;;;2.13;;
28166;SDS011;15455;53.376;-6.262;2023-11-19T06:06:12;6.72;;;2.38;;
28166;SDS011;15455;53.376;-6.262;2023-11-19T06:08:58;13.07;;;2.50;;
28166;SDS011;15455;53.376;-6.262;2023-11-19T06:11:57;5.18;;;2.17;;
28166;SDS011;15455;53.376;-6.262;2023-11-19T06:14:42;5.93;;;2.60;;
28166;SDS011;15455;53.376;-6.262;2023-11-19T06:17:28;4.65;;;3.13;;
28166;SDS011;15455;53.376;-6.262;2023-11-19T06:20:14;8.15;;;3.20;;
28166;SDS011;15455;53.376;-6.262;2023-11-19T06:22:59;9.73;;;3.28;;
28166;SDS011;15455;53.376;-6.262;2023-11-19T06:25:45;9.80;;;3.72;;
28166;SDS011;15455;53.376;-6.262;2023-11-19T06:28:31;7.43;;;3.88;;
28166;SDS011;15455;53.376;-6.262;2023-11-19T06:31:17;6.68;;;4.15;;
28166;SDS011;15455;53.376;-6.262;2023-11-19T06:34:02;4.80;;;3.50;;
28166;SDS011;15455;53.376;-6.262;2023-11-19T06:36:49;5.40;;;4.07;;
28166;SDS011;15455;53.376;-6.262;2023-11-19T06:39:34;9.20;;;4.68;;
28166;SDS011;15455;53.376;-6.262;2023-11-19T06:42:20;6.65;;;4.50;;
28166;SDS011;15455;53.376;-6.262;2023-11-19T06:45:06;5.88;;;4.15;;
28166;SDS011;15455;53.376;-6.262;2023-11-19T06:47:52;5.60;;;3.50;;
28166;SDS011;15455;53.376;-6.262;2023-11-19T06:50:38;11.70;;;4.50;;
28166;SDS011;15455;53.376;-6.262;2023-11-19T06:53:23;7.93;;;3.70;;
28166;SDS011;15455;53.376;-6.262;2023-11-19T06:56:22;7.40;;;4.88;;
28166;SDS011;15455;53.376;-6.262;2023-11-19T06:59:09;7.93;;;5.03;;
28166;SDS011;15455;53.376;-6.262;2023-11-19T07:01:55;5.63;;;4.68;;
28166;SDS011;15455;53.376;-6.262;2023-11-19T07:04:40;8.77;;;4.72;;
28166;SDS011;15455;53.376;-6.262;2023-11-19T07:07:26;8.32;;;3.63;;
28166;SDS011;15455;53.376;-6.262;2023-11-19T07:10:12;9.02;;;4.68;;
28166;SDS011;15455;53.376;-6.262;2023-11-19T07:12:58;6.20;;;3.20;;
28166;SDS011;15455;53.376;-6.262;2023-11-19T07:15:43;11.85;;;5.20;;
28166;SDS011;15455;53.376;-6.262;2023-11-19T07:18:29;9.52;;;3.40;;
28166;SDS011;15455;53.376;-6.262;2023-11-19T07:21:14;11.73;;;5.22;;
28166;SDS011;15455;53.376;-6.262;2023-11-19T07:23:59;6.68;;;4.47;;
28166;SDS011;15455;53.376;-6.262;2023-11-19T07:26:46;7.13;;;4.05;;
28166;SDS011;15455;53.376;-6.262;2023-11-19T07:29:32;8.20;;;4.05;;
28166;SDS011;15455;53.376;-6.262;2023-11-19T07:32:17;5.47;;;3.92;;
28166;SDS011;15455;53.376;-6.262;2023-11-19T07:35:03;7.20;;;4.35;;
28166;SDS011;15455;53.376;-6.262;2023-11-19T07:37:49;6.53;;;4.63;;
28166;SDS011;15455;53.376;-6.262;2023-11-19T07:40:36;8.52;;;5.70;;
28166;SDS011;15455;53.376;-6.262;2023-11-19T07:43:21;6.20;;;5.75;;
28166;SDS011;15455;53.376;-6.262;2023-11-19T07:46:13;10.75;;;4.72;;
28166;SDS011;15455;53.376;-6.262;2023-11-19T07:51:44;4.97;;;4.47;;
28166;SDS011;15455;53.376;-6.262;2023-11-19T07:54:30;5.72;;;5.22;;
28166;SDS011;15455;53.376;-6.262;2023-11-19T07:57:15;7.40;;;4.93;;
28166;SDS011;15455;53.376;-6.262;2023-11-19T08:00:01;5.20;;;4.72;;
28166;SDS011;15455;53.376;-6.262;2023-11-19T08:02:56;3.67;;;2.97;;
28166;SDS011;15455;53.376;-6.262;2023-11-19T08:05:41;3.80;;;3.50;;
28166;SDS011;15455;53.376;-6.262;2023-11-19T08:08:27;4.20;;;3.72;;
28166;SDS011;15455;53.376;-6.262;2023-11-19T08:11:14;4.35;;;4.15;;
28166;SDS011;15455;53.376;-6.262;2023-11-19T08:14:00;5.35;;;4.97;;
28166;SDS011;15455;53.376;-6.262;2023-11-19T08:16:45;5.95;;;5.65;;
28166;SDS011;15455;53.376;-6.262;2023-11-19T08:19:31;5.22;;;4.82;;
28166;SDS011;15455;53.376;-6.262;2023-11-19T08:22:17;5.22;;;4.85;;
28166;SDS011;15455;53.376;-6.262;2023-11-19T08:25:03;4.70;;;4.40;;
28166;SDS011;15455;53.376;-6.262;2023-11-19T08:27:52;5.72;;;3.60;;
28166;SDS011;15455;53.376;-6.262;2023-11-19T08:30:37;4.40;;;3.53;;
28166;SDS011;15455;53.376;-6.262;2023-11-19T08:33:23;4.45;;;4.07;;
28166;SDS011;15455;53.376;-6.262;2023-11-19T08:36:14;4.25;;;4.05;;
28166;SDS011;15455;53.376;-6.262;2023-11-19T08:39:01;3.47;;;3.17;;
28166;SDS011;15455;53.376;-6.262;2023-11-19T08:41:47;3.05;;;2.78;;
28166;SDS011;15455;53.376;-6.262;2023-11-19T08:44:33;3.22;;;3.05;;
28166;SDS011;15455;53.376;-6.262;2023-11-19T08:47:18;3.50;;;3.30;;
28166;SDS011;15455;53.376;-6.262;2023-11-19T08:50:04;3.15;;;3.05;;
28166;SDS011;15455;53.376;-6.262;2023-11-19T08:52:50;2.80;;;2.65;;
28166;SDS011;15455;53.376;-6.262;2023-11-19T08:55:35;3.42;;;3.22;;
28166;SDS011;15455;53.376;-6.262;2023-11-19T08:58:22;4.57;;;4.07;;
28166;SDS011;15455;53.376;-6.262;2023-11-19T09:01:07;3.25;;;3.00;;
28166;SDS011;15455;53.376;-6.262;2023-11-19T09:03:54;2.88;;;2.78;;
28166;SDS011;15455;53.376;-6.262;2023-11-19T09:06:40;2.78;;;2.67;;
28166;SDS011;15455;53.376;-6.262;2023-11-19T09:09:26;2.60;;;2.50;;
28166;SDS011;15455;53.376;-6.262;2023-11-19T09:12:11;5.47;;;3.28;;
28166;SDS011;15455;53.376;-6.262;2023-11-19T09:14:59;2.45;;;2.42;;
28166;SDS011;15455;53.376;-6.262;2023-11-19T09:17:44;3.25;;;2.92;;
28166;SDS011;15455;53.376;-6.262;2023-11-19T09:20:30;2.67;;;2.58;;
28166;SDS011;15455;53.376;-6.262;2023-11-19T09:23:23;4.53;;;4.32;;
28166;SDS011;15455;53.376;-6.262;2023-11-19T09:26:10;4.97;;;4.78;;
28166;SDS011;15455;53.376;-6.262;2023-11-19T09:28:56;4.63;;;4.32;;
28166;SDS011;15455;53.376;-6.262;2023-11-19T09:31:41;3.97;;;3.65;;
28166;SDS011;15455;53.376;-6.262;2023-11-19T09:34:27;4.70;;;4.50;;
28166;SDS011;15455;53.376;-6.262;2023-11-19T09:37:13;4.63;;;4.43;;
28166;SDS011;15455;53.376;-6.262;2023-11-19T09:40:01;7.55;;;4.40;;
28166;SDS011;15455;53.376;-6.262;2023-11-19T09:42:47;3.80;;;3.70;;
28166;SDS011;15455;53.376;-6.262;2023-11-19T09:45:36;4.25;;;4.15;;
28166;SDS011;15455;53.376;-6.262;2023-11-19T09:48:34;9.75;;;5.95;;
28166;SDS011;15455;53.376;-6.262;2023-11-19T09:51:20;3.70;;;3.60;;
28166;SDS011;15455;53.376;-6.262;2023-11-19T09:54:07;4.63;;;4.53;;
28166;SDS011;15455;53.376;-6.262;2023-11-19T09:56:55;3.40;;;3.10;;
28166;SDS011;15455;53.376;-6.262;2023-11-19T09:59:48;3.95;;;3.85;;
28166;SDS011;15455;53.376;-6.262;2023-11-19T10:02:35;4.13;;;3.92;;
28166;SDS011;15455;53.376;-6.262;2023-11-19T10:05:22;2.65;;;2.47;;
28166;SDS011;15455;53.376;-6.262;2023-11-19T10:08:09;2.85;;;2.75;;
28166;SDS011;15455;53.376;-6.262;2023-11-19T10:10:56;1.98;;;1.88;;
28166;SDS011;15455;53.376;-6.262;2023-11-19T10:13:41;3.95;;;3.38;;
28166;SDS011;15455;53.376;-6.262;2023-11-19T10:16:28;2.33;;;2.22;;
28166;SDS011;15455;53.376;-6.262;2023-11-19T10:19:21;2.78;;;2.58;;
28166;SDS011;15455;53.376;-6.262;2023-11-19T10:22:06;3.40;;;3.30;;
28166;SDS011;15455;53.376;-6.262;2023-11-19T10:24:53;6.65;;;3.60;;
28166;SDS011;15455;53.376;-6.262;2023-11-19T10:27:41;3.47;;;2.92;;
28166;SDS011;15455;53.376;-6.262;2023-11-19T10:30:27;3.75;;;3.58;;
28166;SDS011;15455;53.376;-6.262;2023-11-19T10:33:14;3.17;;;3.08;;
28166;SDS011;15455;53.376;-6.262;2023-11-19T10:36:02;4.82;;;4.43;;
28166;SDS011;15455;53.376;-6.262;2023-11-19T10:38:55;4.60;;;3.00;;
28166;SDS011;15455;53.376;-6.262;2023-11-19T10:41:42;2.58;;;2.47;;
28166;SDS011;15455;53.376;-6.262;2023-11-19T10:44:34;7.72;;;2.70;;
28166;SDS011;15455;53.376;-6.262;2023-11-19T10:47:22;6.95;;;3.72;;
28166;SDS011;15455;53.376;-6.262;2023-11-19T10:50:11;4.57;;;3.75;;
28166;SDS011;15455;53.376;-6.262;2023-11-19T10:52:57;4.38;;;3.95;;
28166;SDS011;15455;53.376;-6.262;2023-11-19T10:55:46;4.22;;;3.30;;
28166;SDS011;15455;53.376;-6.262;2023-11-19T10:58:32;4.40;;;3.35;;
28166;SDS011;15455;53.376;-6.262;2023-11-19T11:01:20;3.08;;;2.85;;
28166;SDS011;15455;53.376;-6.262;2023-11-19T11:04:10;3.25;;;3.00;;
28166;SDS011;15455;53.376;-6.262;2023-11-19T11:07:00;2.88;;;2.33;;
28166;SDS011;15455;53.376;-6.262;2023-11-19T11:09:47;4.50;;;2.50;;
28166;SDS011;15455;53.376;-6.262;2023-11-19T11:12:34;3.10;;;2.78;;
28166;SDS011;15455;53.376;-6.262;2023-11-19T11:15:24;3.38;;;3.20;;
28166;SDS011;15455;53.376;-6.262;2023-11-19T11:18:14;3.40;;;3.10;;
28166;SDS011;15455;53.376;-6.262;2023-11-19T11:21:04;2.42;;;2.28;;
28166;SDS011;15455;53.376;-6.262;2023-11-19T11:23:56;5.28;;;2.95;;
28166;SDS011;15455;53.376;-6.262;2023-11-19T11:39:53;5.90;;;3.10;;
28166;SDS011;15455;53.376;-6.262;2023-11-19T11:42:39;2.70;;;2.53;;
28166;SDS011;15455;53.376;-6.262;2023-11-19T11:45:38;2.53;;;2.40;;
28166;SDS011;15455;53.376;-6.262;2023-11-19T11:48:28;2.95;;;2.75;;
28166;SDS011;15455;53.376;-6.262;2023-11-19T11:51:16;3.95;;;3.60;;
28166;SDS011;15455;53.376;-6.262;2023-11-19T11:54:02;3.00;;;2.90;;
28166;SDS011;15455;53.376;-6.262;2023-11-19T11:57:07;3.60;;;3.03;;
28166;SDS011;15455;53.376;-6.262;2023-11-19T11:59:59;3.22;;;3.03;;
28166;SDS011;15455;53.376;-6.262;2023-11-19T12:02:50;3.03;;;2.93;;
28166;SDS011;15455;53.376;-6.262;2023-11-19T12:05:43;3.50;;;3.30;;
28166;SDS011;15455;53.376;-6.262;2023-11-19T12:08:32;2.90;;;2.70;;
28166;SDS011;15455;53.376;-6.262;2023-11-19T12:11:37;6.18;;;3.08;;
28166;SDS011;15455;53.376;-6.262;2023-11-19T12:14:59;7.72;;;3.22;;
28166;SDS011;15455;53.376;-6.262;2023-11-19T12:17:48;3.00;;;2.80;;
28166;SDS011;15455;53.376;-6.262;2023-11-19T12:20:35;3.10;;;2.90;;
28166;SDS011;15455;53.376;-6.262;2023-11-19T12:23:24;3.25;;;2.70;;
28166;SDS011;15455;53.376;-6.262;2023-11-19T12:26:20;4.75;;;4.20;;
28166;SDS011;15455;53.376;-6.262;2023-11-19T12:29:15;4.93;;;4.03;;
28166;SDS011;15455;53.376;-6.262;2023-11-19T12:32:01;3.38;;;3.03;;
28166;SDS011;15455;53.376;-6.262;2023-11-19T12:34:51;3.45;;;3.17;;
28166;SDS011;15455;53.376;-6.262;2023-11-19T12:37:43;3.53;;;3.40;;
28166;SDS011;15455;53.376;-6.262;2023-11-19T12:40:30;2.80;;;2.70;;
28166;SDS011;15455;53.376;-6.262;2023-11-19T12:43:22;2.70;;;2.50;;
28166;SDS011;15455;53.376;-6.262;2023-11-19T12:46:17;3.72;;;3.42;;
28166;SDS011;15455;53.376;-6.262;2023-11-19T12:49:06;3.40;;;2.60;;
28166;SDS011;15455;53.376;-6.262;2023-11-19T12:51:52;3.58;;;3.38;;
28166;SDS011;15455;53.376;-6.262;2023-11-19T12:54:37;2.50;;;2.40;;
28166;SDS011;15455;53.376;-6.262;2023-11-19T12:57:36;2.45;;;2.13;;
28166;SDS011;15455;53.376;-6.262;2023-11-19T13:00:24;1.98;;;1.63;;
28166;SDS011;15455;53.376;-6.262;2023-11-19T13:03:10;2.10;;;2.00;;
28166;SDS011;15455;53.376;-6.262;2023-11-19T13:06:03;2.72;;;2.15;;
28166;SDS011;15455;53.376;-6.262;2023-11-19T13:08:49;2.63;;;2.33;;
28166;SDS011;15455;53.376;-6.262;2023-11-19T13:11:39;2.40;;;2.22;;
28166;SDS011;15455;53.376;-6.262;2023-11-19T13:14:35;6.80;;;3.10;;
28166;SDS011;15455;53.376;-6.262;2023-11-19T13:17:23;2.70;;;2.50;;
28166;SDS011;15455;53.376;-6.262;2023-11-19T13:20:09;5.60;;;3.05;;
28166;SDS011;15455;53.376;-6.262;2023-11-19T13:23:03;11.13;;;2.90;;
28166;SDS011;15455;53.376;-6.262;2023-11-19T13:25:50;8.27;;;3.10;;
28166;SDS011;15455;53.376;-6.262;2023-11-19T13:28:35;12.80;;;4.05;;
28166;SDS011;15455;53.376;-6.262;2023-11-19T13:31:21;11.63;;;5.03;;
28166;SDS011;15455;53.376;-6.262;2023-11-19T13:34:07;8.80;;;4.22;;
28166;SDS011;15455;53.376;-6.262;2023-11-19T13:36:53;10.88;;;4.60;;
28166;SDS011;15455;53.376;-6.262;2023-11-19T13:39:41;12.02;;;4.32;;
28166;SDS011;15455;53.376;-6.262;2023-11-19T13:42:27;20.50;;;4.65;;
28166;SDS011;15455;53.376;-6.262;2023-11-19T13:45:13;16.02;;;5.03;;
28166;SDS011;15455;53.376;-6.262;2023-11-19T13:48:00;12.18;;;4.10;;
28166;SDS011;15455;53.376;-6.262;2023-11-19T13:50:45;8.45;;;4.05;;
28166;SDS011;15455;53.376;-6.262;2023-11-19T13:53:31;15.50;;;5.20;;
28166;SDS011;15455;53.376;-6.262;2023-11-19T13:56:16;12.10;;;4.55;;
28166;SDS011;15455;53.376;-6.262;2023-11-19T13:59:02;17.10;;;4.32;;
28166;SDS011;15455;53.376;-6.262;2023-11-19T14:01:48;15.93;;;5.57;;
28166;SDS011;15455;53.376;-6.262;2023-11-19T14:04:34;15.60;;;4.53;;
28166;SDS011;15455;53.376;-6.262;2023-11-19T14:07:19;16.05;;;6.07;;
28166;SDS011;15455;53.376;-6.262;2023-11-19T14:10:05;17.55;;;5.15;;
28166;SDS011;15455;53.376;-6.262;2023-11-19T14:12:52;15.93;;;4.88;;
28166;SDS011;15455;53.376;-6.262;2023-11-19T14:15:38;10.13;;;3.20;;
28166;SDS011;15455;53.376;-6.262;2023-11-19T14:18:23;12.45;;;4.38;;
28166;SDS011;15455;53.376;-6.262;2023-11-19T14:21:09;13.38;;;4.28;;
28166;SDS011;15455;53.376;-6.262;2023-11-19T14:23:55;8.88;;;4.50;;
28166;SDS011;15455;53.376;-6.262;2023-11-19T14:26:40;10.20;;;3.70;;
28166;SDS011;15455;53.376;-6.262;2023-11-19T14:29:26;19.85;;;3.05;;
28166;SDS011;15455;53.376;-6.262;2023-11-19T14:32:15;9.65;;;3.25;;
28166;SDS011;15455;53.376;-6.262;2023-11-19T14:35:00;11.02;;;2.70;;
28166;SDS011;15455;53.376;-6.262;2023-11-19T14:37:46;22.67;;;4.22;;
28166;SDS011;15455;53.376;-6.262;2023-11-19T14:40:31;17.20;;;3.63;;
28166;SDS011;15455;53.376;-6.262;2023-11-19T14:43:19;16.98;;;4.22;;
28166;SDS011;15455;53.376;-6.262;2023-11-19T14:46:05;19.75;;;5.20;;
28166;SDS011;15455;53.376;-6.262;2023-11-19T14:48:52;22.20;;;9.63;;
28166;SDS011;15455;53.376;-6.262;2023-11-19T14:51:37;15.05;;;4.05;;
28166;SDS011;15455;53.376;-6.262;2023-11-19T14:54:23;16.00;;;3.13;;
28166;SDS011;15455;53.376;-6.262;2023-11-19T14:57:09;14.40;;;3.90;;
28166;SDS011;15455;53.376;-6.262;2023-11-19T14:59:54;15.32;;;3.80;;
28166;SDS011;15455;53.376;-6.262;2023-11-19T15:02:40;11.05;;;3.20;;
28166;SDS011;15455;53.376;-6.262;2023-11-19T15:05:26;9.18;;;3.15;;
28166;SDS011;15455;53.376;-6.262;2023-11-19T15:08:14;18.65;;;4.93;;
28166;SDS011;15455;53.376;-6.262;2023-11-19T15:11:01;15.93;;;3.45;;
28166;SDS011;15455;53.376;-6.262;2023-11-19T15:13:47;16.25;;;4.80;;
28166;SDS011;15455;53.376;-6.262;2023-11-19T15:16:34;11.45;;;4.90;;
28166;SDS011;15455;53.376;-6.262;2023-11-19T15:19:20;22.42;;;8.63;;
28166;SDS011;15455;53.376;-6.262;2023-11-19T15:22:05;19.02;;;8.52;;
28166;SDS011;15455;53.376;-6.262;2023-11-19T15:24:51;10.88;;;5.85;;
28166;SDS011;15455;53.376;-6.262;2023-11-19T15:27:38;21.13;;;9.15;;
28166;SDS011;15455;53.376;-6.262;2023-11-19T15:30:24;9.40;;;3.47;;
28166;SDS011;15455;53.376;-6.262;2023-11-19T15:33:11;16.98;;;6.75;;
28166;SDS011;15455;53.376;-6.262;2023-11-19T15:35:58;12.95;;;6.18;;
28166;SDS011;15455;53.376;-6.262;2023-11-19T15:38:45;24.35;;;9.45;;
28166;SDS011;15455;53.376;-6.262;2023-11-19T15:41:33;22.48;;;8.95;;
28166;SDS011;15455;53.376;-6.262;2023-11-19T15:44:21;31.02;;;10.15;;
28166;SDS011;15455;53.376;-6.262;2023-11-19T15:47:06;25.25;;;7.68;;
28166;SDS011;15455;53.376;-6.262;2023-11-19T15:49:53;22.65;;;8.80;;
28166;SDS011;15455;53.376;-6.262;2023-11-19T15:52:39;27.50;;;13.95;;
28166;SDS011;15455;53.376;-6.262;2023-11-19T15:55:24;11.30;;;4.15;;
28166;SDS011;15455;53.376;-6.262;2023-11-19T15:58:10;29.73;;;6.82;;
28166;SDS011;15455;53.376;-6.262;2023-11-19T16:00:56;16.63;;;4.45;;
28166;SDS011;15455;53.376;-6.262;2023-11-19T16:03:41;16.88;;;4.22;;
28166;SDS011;15455;53.376;-6.262;2023-11-19T16:06:31;15.55;;;4.18;;
28166;SDS011;15455;53.376;-6.262;2023-11-19T16:09:17;16.83;;;4.40;;
28166;SDS011;15455;53.376;-6.262;2023-11-19T16:12:04;18.98;;;7.07;;
28166;SDS011;15455;53.376;-6.262;2023-11-19T16:14:50;20.77;;;4.95;;
28166;SDS011;15455;53.376;-6.262;2023-11-19T16:17:35;17.40;;;5.18;;
28166;SDS011;15455;53.376;-6.262;2023-11-19T16:20:24;18.42;;;3.95;;
28166;SDS011;15455;53.376;-6.262;2023-11-19T16:23:10;28.33;;;4.55;;
28166;SDS011;15455;53.376;-6.262;2023-11-19T16:25:55;25.13;;;4.90;;
28166;SDS011;15455;53.376;-6.262;2023-11-19T16:28:41;14.60;;;3.30;;
28166;SDS011;15455;53.376;-6.262;2023-11-19T16:31:29;27.20;;;5.57;;
28166;SDS011;15455;53.376;-6.262;2023-11-19T16:34:15;24.70;;;3.95;;
28166;SDS011;15455;53.376;-6.262;2023-11-19T16:37:00;16.60;;;5.95;;
28166;SDS011;15455;53.376;-6.262;2023-11-19T16:39:46;15.10;;;3.05;;
28166;SDS011;15455;53.376;-6.262;2023-11-19T16:42:31;29.58;;;5.18;;